Time;durP1;ratioP1;P1;durP2;ratioP2;P2;SDS_P1;SDS_P2;PMS_P1;PMS_P2;Temp;Humidity;BMP_temperature;BMP_pressure;BME280_temperature;BME280_humidity;BME280_pressure;Samples;Min_cycle;Max_cycle;Signal;HPM_P1;HPM_P2
2022/08/30 00:01:07;;;;;;;;;;;;;;;;;;1048634;28;4106;-52
2022/08/30 00:01:38;;;;;;;;;;;;;;;;;;1051692;28;4339;-51
2022/08/30 00:02:09;;;;;;;;;;;;;;;;;;1050066;28;3880;-51
2022/08/30 00:02:39;;;;;;;;;;;;;;;;;;1050572;28;3871;-55
2022/08/30 00:03:10;;;;;;;;;;;;;;;;;;1050841;28;3988;-50
2022/08/30 00:03:44;;;;;;;;;;;;;;;;;;1051115;28;3867;-51
2022/08/30 00:04:14;;;;;;;;;;;;;;;;;;1050155;28;4048;-49
2022/08/30 00:04:45;;;;;;;;;;;;;;;;;;1050570;28;4526;-48
2022/08/30 00:05:16;;;;;;;;;;;;;;;;;;1051308;28;3752;-50
2022/08/30 00:05:46;;;;;;;;;;;;;;;;;;1050928;28;4046;-49
2022/08/30 00:06:17;;;;;;;;;;;;;;;;;;1050921;28;3691;-54
2022/08/30 00:06:47;;;;;;;;;;;;;;;;;;1050251;28;3916;-50
2022/08/30 00:07:24;;;;;;;;;;;;;;;;;;1051209;28;3761;-50
2022/08/30 00:07:54;;;;;;;;;;;;;;;;;;1051392;28;3903;-48
2022/08/30 00:08:24;;;;;;;;;;;;;;;;;;1050744;28;3746;-50
2022/08/30 00:08:55;;;;;;;;;;;;;;;;;;1049384;28;4058;-53
2022/08/30 00:09:26;;;;;;;;;;;;;;;;;;1050458;28;3903;-53
2022/08/30 00:09:56;;;;;;;;;;;;;;;;;;1050864;28;3860;-49
2022/08/30 00:10:27;;;;;;;;;;;;;;;;;;1051318;28;4085;-52
2022/08/30 00:10:58;;;;;;;;;;;;;;;;;;1050320;28;4086;-51
2022/08/30 00:11:29;;;;;;;;;;;;;;;;;;1050284;28;3677;-52
2022/08/30 00:11:59;;;;;;;;;;;;;;;;;;1051858;28;4096;-54
2022/08/30 00:12:30;;;;;;;;;;;;;;;;;;1050835;28;3836;-53
2022/08/30 00:13:01;;;;;;;;;;;;;;;;;;1050670;28;4044;-53
2022/08/30 00:13:31;;;;;;;;;;;;;;;;;;1049614;28;3433;-50
2022/08/30 00:14:01;;;;;;;;;;;;;;;;;;1050523;28;4043;-53
2022/08/30 00:14:31;;;;;;;;;;;;;;;;;;1051348;28;3543;-52
2022/08/30 00:15:03;;;;;;;;;;;;;;;;;;1050361;28;3950;-53
2022/08/30 00:15:33;;;;;;;;;;;;;;;;;;1050940;28;3956;-49
2022/08/30 00:16:05;;;;;;;;;;;;;;;;;;1051400;28;4268;-53
2022/08/30 00:16:35;;;;;;;;;;;;;;;;;;1050501;28;3932;-56
2022/08/30 00:17:06;;;;;;;;;;;;;;;;;;1048540;28;3789;-52
2022/08/30 00:17:36;;;;;;;;;;;;;;;;;;1050960;28;3021;-52
2022/08/30 00:18:06;;;;;;;;;;;;;;;;;;1049137;28;4124;-54
2022/08/30 00:18:37;;;;;;;;;;;;;;;;;;1046877;28;3685;-53
2022/08/30 00:19:08;;;;;;;;;;;;;;;;;;1046570;28;4031;-48
2022/08/30 00:19:38;;;;;;;;;;;;;;;;;;1041312;28;3781;-52
2022/08/30 00:20:10;;;;;;;;;;;;;;;;;;1043272;28;4051;-50
2022/08/30 00:20:40;;;;;;;;;;;;;;;;;;1045965;28;3906;-53
2022/08/30 00:21:12;;;;;;;;;;;;;;;;;;1047504;28;4006;-55
2022/08/30 00:21:42;;;;;;;;;;;;;;;;;;1050994;28;3845;-51
2022/08/30 00:22:12;;;;;;;;;;;;;;;;;;1049899;28;3864;-52
2022/08/30 00:22:43;;;;;;;;;;;;;;;;;;1050303;28;3922;-50
2022/08/30 00:23:14;;;;;;;;;;;;;;;;;;1051473;28;4188;-51
2022/08/30 00:23:44;;;;;;;;;;;;;;;;;;1045410;28;3990;-55
2022/08/30 00:24:15;;;;;;;;;;;;;;;;;;1045677;28;3738;-54
2022/08/30 00:24:45;;;;;;;;;;;;;;;;;;1047040;28;3961;-51
2022/08/30 00:25:16;;;;;;;;;;;;;;;;;;1046503;28;3905;-50
2022/08/30 00:25:46;;;;;;;;;;;;;;;;;;1050210;28;4631;-51
2022/08/30 00:26:16;;;;;;;;;;;;;;;;;;1051658;28;3739;-56
2022/08/30 00:26:47;;;;;;;;;;;;;;;;;;1050552;28;4081;-54
2022/08/30 00:27:17;;;;;;;;;;;;;;;;;;1047622;28;3814;-50
2022/08/30 00:27:48;;;;;;;;;;;;;;;;;;1045682;28;4155;-51
2022/08/30 00:28:18;;;;;;;;;;;;;;;;;;1047080;28;2829;-49
2022/08/30 00:28:48;;;;;;;;;;;;;;;;;;1046763;28;4054;-53
2022/08/30 00:29:19;;;;;;;;;;;;;;;;;;1049864;28;3969;-51
2022/08/30 00:29:49;;;;;;;;;;;;;;;;;;1049769;28;4348;-53
2022/08/30 00:30:20;;;;;;;;;;;;;;;;;;1050242;28;3872;-53
2022/08/30 00:30:50;;;;;;;;;;;;;;;;;;1050271;28;4040;-49
2022/08/30 00:31:20;;;;;;;;;;;;;;;;;;1050834;28;4077;-51
2022/08/30 00:31:51;;;;;;;;;;;;;;;;;;1049938;28;4291;-53
2022/08/30 00:32:21;;;;;;;;;;;;;;;;;;1051801;28;3906;-53
2022/08/30 00:32:52;;;;;;;;;;;;;;;;;;1048732;28;4026;-50
2022/08/30 00:33:23;;;;;;;;;;;;;;;;;;1047198;28;3878;-52
2022/08/30 00:33:53;;;;;;;;;;;;;;;;;;1045203;28;5325;-51
2022/08/30 00:34:23;;;;;;;;;;;;;;;;;;1045615;28;3645;-53
2022/08/30 00:34:54;;;;;;;;;;;;;;;;;;1040709;28;3953;-53
2022/08/30 00:35:24;;;;;;;;;;;;;;;;;;1046178;28;3778;-51
2022/08/30 00:35:55;;;;;;;;;;;;;;;;;;1044647;28;3909;-52
2022/08/30 00:36:25;;;;;;;;;;;;;;;;;;1045799;28;3837;-50
2022/08/30 00:36:56;;;;;;;;;;;;;;;;;;1048599;28;4045;-52
2022/08/30 00:37:26;;;;;;;;;;;;;;;;;;1048970;28;2817;-53
2022/08/30 00:37:57;;;;;;;;;;;;;;;;;;1049553;28;4062;-51
2022/08/30 00:38:27;;;;;;;;;;;;;;;;;;1050432;28;4037;-49
2022/08/30 00:38:57;;;;;;;;;;;;;;;;;;1050106;28;4114;-52
2022/08/30 00:39:27;;;;;;;;;;;;;;;;;;1049079;28;3032;-51
2022/08/30 00:39:58;;;;;;;;;;;;;;;;;;1051226;28;4013;-52
2022/08/30 00:40:28;;;;;;;;;;;;;;;;;;1047155;28;3858;-48
2022/08/30 00:40:58;;;;;;;;;;;;;;;;;;1047458;28;3931;-50
2022/08/30 00:41:29;;;;;;;;;;;;;;;;;;1044156;28;3884;-53
2022/08/30 00:41:59;;;;;;;;;;;;;;;;;;1043291;28;4035;-52
2022/08/30 00:42:30;;;;;;;;;;;;;;;;;;1045522;28;4475;-52
2022/08/30 00:43:01;;;;;;;;;;;;;;;;;;1047459;28;4394;-50
2022/08/30 00:43:33;;;;;;;;;;;;;;;;;;1045574;28;3907;-52
2022/08/30 00:44:10;;;;;;;;;;;;;;;;;;1047430;28;3855;-52
2022/08/30 00:44:47;;;;;;;;;;;;;;;;;;1051702;28;1229;-50
2022/08/30 00:45:26;;;;;;;;;;;;;;;;;;1048702;28;4310;-52
2022/08/30 00:45:56;;;;;;;;;;;;;;;;;;1046215;28;4125;-51
2022/08/30 00:46:27;;;;;;;;;;;;;;;;;;1047535;28;3334;-53
2022/08/30 00:46:57;;;;;;;;;;;;;;;;;;1045716;28;4506;-49
2022/08/30 00:47:27;;;;;;;;;;;;;;;;;;1046398;28;3274;-54
2022/08/30 00:47:58;;;;;;;;;;;;;;;;;;1048861;28;4046;-52
2022/08/30 00:48:30;;;;;;;;;;;;;;;;;;1047476;28;3389;-54
2022/08/30 00:49:02;;;;;;;;;;;;;;;;;;1045369;28;4069;-49
2022/08/30 00:49:34;;;;;;;;;;;;;;;;;;1047423;28;4353;-54
2022/08/30 00:50:07;;;;;;;;;;;;;;;;;;1045278;28;4073;-54
2022/08/30 00:50:39;;;;;;;;;;;;;;;;;;1049220;28;3868;-52
2022/08/30 00:51:17;;;;;;;;;;;;;;;;;;1049314;28;4053;-49
2022/08/30 00:51:47;;;;;;;;;;;;;;;;;;1050739;28;4223;-51
2022/08/30 00:52:19;;;;;;;;;;;;;;;;;;1050413;28;3616;-55
2022/08/30 00:52:50;;;;;;;;;;;;;;;;;;1050323;28;3874;-52
2022/08/30 00:53:34;;;;;;;;;;;;;;;;;;1048919;28;3848;-54
2022/08/30 00:54:04;;;;;;;;;;;;;;;;;;1050318;28;4066;-53
2022/08/30 00:54:35;;;;;;;;;;;;;;;;;;1051095;28;3888;-51
2022/08/30 00:55:06;;;;;;;;;;;;;;;;;;1050176;28;3967;-52
2022/08/30 00:55:36;;;;;;;;;;;;;;;;;;1050824;28;3219;-51
2022/08/30 00:56:07;;;;;;;;;;;;;;;;;;1050790;28;3900;-52
2022/08/30 00:56:37;;;;;;;;;;;;;;;;;;1051327;28;3817;-51
2022/08/30 00:57:09;;;;;;;;;;;;;;;;;;1050292;28;3904;-52
2022/08/30 00:57:41;;;;;;;;;;;;;;;;;;1049386;28;5034;-49
2022/08/30 00:58:15;;;;;;;;;;;;;;;;;;1053070;28;4076;-50
2022/08/30 00:58:48;;;;;;;;;;;;;;;;;;1051026;28;4087;-53
2022/08/30 00:59:20;;;;;;;;;;;;;;;;;;1054225;28;3596;-52
2022/08/30 00:59:51;;;;;;;;;;;;;;;;;;1050861;28;4060;-52
2022/08/30 01:00:21;;;;;;;;;;;;;;;;;;1050334;28;2622;-52
2022/08/30 01:00:53;;;;;;;;;;;;;;;;;;1049348;28;4071;-54
2022/08/30 01:01:24;;;;;;;;;;;;;;;;;;1049896;28;3486;-53
2022/08/30 01:01:54;;;;;;;;;;;;;;;;;;1046415;28;3986;-50
2022/08/30 01:02:26;;;;;;;;;;;;;;;;;;1046333;28;4154;-52
2022/08/30 01:02:57;;;;;;;;;;;;;;;;;;1044319;28;4045;-50
2022/08/30 01:03:28;;;;;;;;;;;;;;;;;;1043899;28;3809;-51
2022/08/30 01:03:58;;;;;;;;;;;;;;;;;;1046789;28;4020;-50
2022/08/30 01:04:30;;;;;;;;;;;;;;;;;;1045513;28;3834;-55
2022/08/30 01:05:02;;;;;;;;;;;;;;;;;;1046744;28;4270;-51
2022/08/30 01:05:40;;;;;;;;;;;;;;;;;;1050449;28;3979;-50
2022/08/30 01:06:13;;;;;;;;;;;;;;;;;;1049409;28;4026;-51
2022/08/30 01:06:43;;;;;;;;;;;;;;;;;;1050695;28;3905;-52
2022/08/30 01:07:15;;;;;;;;;;;;;;;;;;1046435;28;3903;-55
2022/08/30 01:07:45;;;;;;;;;;;;;;;;;;1043198;28;4015;-51
2022/08/30 01:08:16;;;;;;;;;;;;;;;;;;1044342;28;3834;-51
2022/08/30 01:08:46;;;;;;;;;;;;;;;;;;1040580;28;4112;-48
2022/08/30 01:09:17;;;;;;;;;;;;;;;;;;1046057;28;3501;-51
2022/08/30 01:09:47;;;;;;;;;;;;;;;;;;1049394;28;4063;-53
2022/08/30 01:10:17;;;;;;;;;;;;;;;;;;1051103;28;3866;-54
2022/08/30 01:10:49;;;;;;;;;;;;;;;;;;1050037;28;3906;-54
2022/08/30 01:11:23;;;;;;;;;;;;;;;;;;1049939;28;3985;-54
2022/08/30 01:12:00;;;;;;;;;;;;;;;;;;1050971;28;4111;-53
2022/08/30 01:12:31;;;;;;;;;;;;;;;;;;1050499;28;3959;-49
2022/08/30 01:13:01;;;;;;;;;;;;;;;;;;1049971;28;4193;-50
2022/08/30 01:13:33;;;;;;;;;;;;;;;;;;1049733;28;3160;-51
2022/08/30 01:14:04;;;;;;;;;;;;;;;;;;1050234;28;4787;-49
2022/08/30 01:14:34;;;;;;;;;;;;;;;;;;1050516;28;4594;-50
2022/08/30 01:15:05;;;;;;;;;;;;;;;;;;1050193;28;3848;-53
2022/08/30 01:15:36;;;;;;;;;;;;;;;;;;1050266;28;3953;-51
2022/08/30 01:16:06;;;;;;;;;;;;;;;;;;1050371;28;4199;-52
2022/08/30 01:16:37;;;;;;;;;;;;;;;;;;1048994;28;3850;-55
2022/08/30 01:17:08;;;;;;;;;;;;;;;;;;1048450;28;4025;-50
2022/08/30 01:17:40;;;;;;;;;;;;;;;;;;1048428;28;3850;-52
2022/08/30 01:18:11;;;;;;;;;;;;;;;;;;1048530;28;4315;-52
2022/08/30 01:18:42;;;;;;;;;;;;;;;;;;1052413;28;3144;-49
2022/08/30 01:19:34;;;;;;;;;;;;;;;;;;1046864;28;4082;-50
2022/08/30 01:20:06;;;;;;;;;;;;;;;;;;1047788;28;3878;-49
2022/08/30 01:20:48;;;;;;;;;;;;;;;;;;1043256;28;4258;-53
2022/08/30 01:21:26;;;;;;;;;;;;;;;;;;1048528;28;4045;-52
2022/08/30 01:22:00;;;;;;;;;;;;;;;;;;1049275;28;3884;-50
2022/08/30 01:22:35;;;;;;;;;;;;;;;;;;1050955;28;3752;-51
2022/08/30 01:23:08;;;;;;;;;;;;;;;;;;1050896;28;4063;-50
2022/08/30 01:23:42;;;;;;;;;;;;;;;;;;1050854;28;4399;-51
2022/08/30 01:24:12;;;;;;;;;;;;;;;;;;1050863;28;4119;-55
2022/08/30 01:24:45;;;;;;;;;;;;;;;;;;1051614;28;4002;-52
2022/08/30 01:25:21;;;;;;;;;;;;;;;;;;1052180;28;3824;-51
2022/08/30 01:25:52;;;;;;;;;;;;;;;;;;1051186;28;4220;-53
2022/08/30 01:26:23;;;;;;;;;;;;;;;;;;1050974;28;3908;-50
2022/08/30 01:26:53;;;;;;;;;;;;;;;;;;1049318;28;4061;-51
2022/08/30 01:27:24;;;;;;;;;;;;;;;;;;1053153;28;3565;-51
2022/08/30 01:28:00;;;;;;;;;;;;;;;;;;1051246;28;3880;-53
2022/08/30 01:28:30;;;;;;;;;;;;;;;;;;1050039;28;4185;-54
2022/08/30 01:29:03;;;;;;;;;;;;;;;;;;1047853;28;4079;-52
2022/08/30 01:29:33;;;;;;;;;;;;;;;;;;1047168;28;3067;-52
2022/08/30 01:30:04;;;;;;;;;;;;;;;;;;1046195;28;4180;-51
2022/08/30 01:30:37;;;;;;;;;;;;;;;;;;1047240;28;3285;-51
2022/08/30 01:31:08;;;;;;;;;;;;;;;;;;1050156;28;4063;-50
2022/08/30 01:31:38;;;;;;;;;;;;;;;;;;1050640;28;3875;-53
2022/08/30 01:32:14;;;;;;;;;;;;;;;;;;1050362;28;3884;-51
2022/08/30 01:32:45;;;;;;;;;;;;;;;;;;1051817;28;4025;-48
2022/08/30 01:33:15;;;;;;;;;;;;;;;;;;1048734;28;3897;-49
2022/08/30 01:33:45;;;;;;;;;;;;;;;;;;1048905;28;4173;-51
2022/08/30 01:34:16;;;;;;;;;;;;;;;;;;1046705;28;3332;-54
2022/08/30 01:34:47;;;;;;;;;;;;;;;;;;1048198;28;4057;-51
2022/08/30 01:35:19;;;;;;;;;;;;;;;;;;1052463;28;3555;-53
2022/08/30 01:35:50;;;;;;;;;;;;;;;;;;1048010;28;4194;-53
2022/08/30 01:36:21;;;;;;;;;;;;;;;;;;1049364;28;3688;-51
2022/08/30 01:36:51;;;;;;;;;;;;;;;;;;1043888;28;4307;-53
2022/08/30 01:37:28;;;;;;;;;;;;;;;;;;1045128;28;4135;-51
2022/08/30 01:37:58;;;;;;;;;;;;;;;;;;1047960;28;3870;-51
2022/08/30 01:38:33;;;;;;;;;;;;;;;;;;1051054;28;3842;-50
2022/08/30 01:39:04;;;;;;;;;;;;;;;;;;1048729;28;4105;-48
2022/08/30 01:39:34;;;;;;;;;;;;;;;;;;1052482;28;3104;-50
2022/08/30 01:40:05;;;;;;;;;;;;;;;;;;1051724;28;3906;-51
2022/08/30 01:40:36;;;;;;;;;;;;;;;;;;1052582;28;3080;-51
2022/08/30 01:41:09;;;;;;;;;;;;;;;;;;1052146;28;4055;-51
2022/08/30 01:41:40;;;;;;;;;;;;;;;;;;1052355;28;3117;-49
2022/08/30 01:42:11;;;;;;;;;;;;;;;;;;1050478;28;4056;-52
2022/08/30 01:42:42;;;;;;;;;;;;;;;;;;1050957;28;2981;-52
2022/08/30 01:43:12;;;;;;;;;;;;;;;;;;1049939;28;3907;-52
2022/08/30 01:43:43;;;;;;;;;;;;;;;;;;1053723;28;3051;-50
2022/08/30 01:44:27;;;;;;;;;;;;;;;;;;1044483;28;4037;-51
2022/08/30 01:45:04;;;;;;;;;;;;;;;;;;1044687;28;4050;-52
2022/08/30 01:45:35;;;;;;;;;;;;;;;;;;1047663;28;3328;-53
2022/08/30 01:46:05;;;;;;;;;;;;;;;;;;1049220;28;3978;-51
2022/08/30 01:46:37;;;;;;;;;;;;;;;;;;1046514;28;3801;-53
2022/08/30 01:47:08;;;;;;;;;;;;;;;;;;1047954;28;4183;-53
2022/08/30 01:47:39;;;;;;;;;;;;;;;;;;1046074;28;3776;-50
2022/08/30 01:48:11;;;;;;;;;;;;;;;;;;1047411;28;4035;-51
2022/08/30 01:48:42;;;;;;;;;;;;;;;;;;1047351;28;3303;-49
2022/08/30 01:49:14;;;;;;;;;;;;;;;;;;1047550;28;3966;-52
2022/08/30 01:49:45;;;;;;;;;;;;;;;;;;1046874;28;4041;-50
2022/08/30 01:50:15;;;;;;;;;;;;;;;;;;1045798;28;3705;-51
2022/08/30 01:50:47;;;;;;;;;;;;;;;;;;1048159;28;3942;-51
2022/08/30 01:51:17;;;;;;;;;;;;;;;;;;1046716;28;3880;-51
2022/08/30 01:51:47;;;;;;;;;;;;;;;;;;1047753;28;4252;-49
2022/08/30 01:52:18;;;;;;;;;;;;;;;;;;1047355;28;2888;-49
2022/08/30 01:52:49;;;;;;;;;;;;;;;;;;1048486;28;4171;-51
2022/08/30 01:53:19;;;;;;;;;;;;;;;;;;1048001;28;3869;-51
2022/08/30 01:53:49;;;;;;;;;;;;;;;;;;1047142;28;4042;-52
2022/08/30 01:54:19;;;;;;;;;;;;;;;;;;1048040;28;2437;-50
2022/08/30 01:54:50;;;;;;;;;;;;;;;;;;1048239;28;3879;-51
2022/08/30 01:55:20;;;;;;;;;;;;;;;;;;1049186;28;3454;-49
2022/08/30 01:55:50;;;;;;;;;;;;;;;;;;1048704;28;3812;-52
2022/08/30 01:56:22;;;;;;;;;;;;;;;;;;1047465;28;3814;-48
2022/08/30 01:56:52;;;;;;;;;;;;;;;;;;1047668;28;4041;-52
2022/08/30 01:57:25;;;;;;;;;;;;;;;;;;1046728;28;3835;-50
2022/08/30 01:57:56;;;;;;;;;;;;;;;;;;1045832;28;4036;-52
2022/08/30 01:58:29;;;;;;;;;;;;;;;;;;1047962;28;3357;-54
2022/08/30 01:58:59;;;;;;;;;;;;;;;;;;1046137;28;4167;-50
2022/08/30 01:59:29;;;;;;;;;;;;;;;;;;1047357;28;3702;-50
2022/08/30 02:00:00;;;;;;;;;;;;;;;;;;1046454;28;4202;-53
2022/08/30 02:00:31;;;;;;;;;;;;;;;;;;1044780;28;3612;-51
2022/08/30 02:01:03;;;;;;;;;;;;;;;;;;1046900;28;4051;-51
2022/08/30 02:01:35;;;;;;;;;;;;;;;;;;1047184;28;3778;-50
2022/08/30 02:02:05;;;;;;;;;;;;;;;;;;1048141;28;4053;-51
2022/08/30 02:02:36;;;;;;;;;;;;;;;;;;1046686;28;3777;-51
2022/08/30 02:03:06;;;;;;;;;;;;;;;;;;1047216;28;3964;-52
2022/08/30 02:03:37;;;;;;;;;;;;;;;;;;1046657;28;3887;-49
2022/08/30 02:04:08;;;;;;;;;;;;;;;;;;1046443;28;3861;-55
2022/08/30 02:04:38;;;;;;;;;;;;;;;;;;1047620;28;4038;-48
2022/08/30 02:05:09;;;;;;;;;;;;;;;;;;1047242;28;3980;-49
2022/08/30 02:05:39;;;;;;;;;;;;;;;;;;1046656;28;3971;-50
2022/08/30 02:06:11;;;;;;;;;;;;;;;;;;1047854;28;4233;-53
2022/08/30 02:06:43;;;;;;;;;;;;;;;;;;1046807;28;3743;-54
2022/08/30 02:07:13;;;;;;;;;;;;;;;;;;1047206;28;3826;-52
2022/08/30 02:07:43;;;;;;;;;;;;;;;;;;1047829;28;3825;-52
2022/08/30 02:08:14;;;;;;;;;;;;;;;;;;1047344;28;3856;-51
2022/08/30 02:08:44;;;;;;;;;;;;;;;;;;1047047;28;3908;-49
2022/08/30 02:09:15;;;;;;;;;;;;;;;;;;1046517;28;3777;-49
2022/08/30 02:09:45;;;;;;;;;;;;;;;;;;1046243;28;4140;-53
2022/08/30 02:10:16;;;;;;;;;;;;;;;;;;1047263;28;3720;-50
2022/08/30 02:10:52;;;;;;;;;;;;;;;;;;1047376;28;4172;-51
2022/08/30 02:11:29;;;;;;;;;;;;;;;;;;1047303;28;3989;-54
2022/08/30 02:12:00;;;;;;;;;;;;;;;;;;1047076;28;3911;-53
2022/08/30 02:12:30;;;;;;;;;;;;;;;;;;1047383;28;3990;-56
2022/08/30 02:13:00;;;;;;;;;;;;;;;;;;1047894;28;3899;-52
2022/08/30 02:13:31;;;;;;;;;;;;;;;;;;1046752;28;4111;-51
2022/08/30 02:14:01;;;;;;;;;;;;;;;;;;1047784;28;4130;-47
2022/08/30 02:14:33;;;;;;;;;;;;;;;;;;1046694;28;3972;-54
2022/08/30 02:15:04;;;;;;;;;;;;;;;;;;1045525;28;4148;-52
2022/08/30 02:15:35;;;;;;;;;;;;;;;;;;1048611;28;4026;-53
2022/08/30 02:16:10;;;;;;;;;;;;;;;;;;1047226;28;3938;-50
2022/08/30 02:16:41;;;;;;;;;;;;;;;;;;1047896;28;3904;-51
2022/08/30 02:17:12;;;;;;;;;;;;;;;;;;1046619;28;3950;-52
2022/08/30 02:17:43;;;;;;;;;;;;;;;;;;1047462;28;3971;-50
2022/08/30 02:18:13;;;;;;;;;;;;;;;;;;1046902;28;3782;-50
2022/08/30 02:18:44;;;;;;;;;;;;;;;;;;1047799;28;3193;-48
2022/08/30 02:19:14;;;;;;;;;;;;;;;;;;1045798;28;3654;-50
2022/08/30 02:19:44;;;;;;;;;;;;;;;;;;1047141;28;4073;-53
2022/08/30 02:20:15;;;;;;;;;;;;;;;;;;1047560;28;3796;-50
2022/08/30 02:20:45;;;;;;;;;;;;;;;;;;1047201;28;4153;-54
2022/08/30 02:21:16;;;;;;;;;;;;;;;;;;1047444;28;2876;-50
2022/08/30 02:21:46;;;;;;;;;;;;;;;;;;1047205;28;4077;-51
2022/08/30 02:22:17;;;;;;;;;;;;;;;;;;1046082;28;3740;-48
2022/08/30 02:22:47;;;;;;;;;;;;;;;;;;1047228;28;3986;-51
2022/08/30 02:23:18;;;;;;;;;;;;;;;;;;1047105;28;3844;-49
2022/08/30 02:23:48;;;;;;;;;;;;;;;;;;1046301;28;6082;-53
2022/08/30 02:24:18;;;;;;;;;;;;;;;;;;1047440;28;3919;-54
2022/08/30 02:24:49;;;;;;;;;;;;;;;;;;1047348;28;3876;-51
2022/08/30 02:25:19;;;;;;;;;;;;;;;;;;1047932;28;3468;-52
2022/08/30 02:25:50;;;;;;;;;;;;;;;;;;1048366;28;3876;-51
2022/08/30 02:26:20;;;;;;;;;;;;;;;;;;1046513;28;3761;-49
2022/08/30 02:26:52;;;;;;;;;;;;;;;;;;1046612;28;4396;-54
2022/08/30 02:27:22;;;;;;;;;;;;;;;;;;1048405;28;3546;-48
2022/08/30 02:27:52;;;;;;;;;;;;;;;;;;1047407;28;4128;-52
2022/08/30 02:28:24;;;;;;;;;;;;;;;;;;1047095;28;3908;-52
2022/08/30 02:28:54;;;;;;;;;;;;;;;;;;1045385;28;4108;-50
2022/08/30 02:29:25;;;;;;;;;;;;;;;;;;1047512;28;2919;-50
2022/08/30 02:29:55;;;;;;;;;;;;;;;;;;1047296;28;4063;-50
2022/08/30 02:30:25;;;;;;;;;;;;;;;;;;1046293;28;4307;-50
2022/08/30 02:30:55;;;;;;;;;;;;;;;;;;1046963;28;4065;-50
2022/08/30 02:31:26;;;;;;;;;;;;;;;;;;1047650;28;3835;-52
2022/08/30 02:31:56;;;;;;;;;;;;;;;;;;1046684;28;4111;-51
2022/08/30 02:32:26;;;;;;;;;;;;;;;;;;1048442;28;3850;-51
2022/08/30 02:32:57;;;;;;;;;;;;;;;;;;1045718;28;4131;-52
2022/08/30 02:33:27;;;;;;;;;;;;;;;;;;1047746;28;3864;-49
2022/08/30 02:33:57;;;;;;;;;;;;;;;;;;1046062;28;4517;-54
2022/08/30 02:34:27;;;;;;;;;;;;;;;;;;1048241;28;3881;-51
2022/08/30 02:34:58;;;;;;;;;;;;;;;;;;1043173;28;4080;-50
2022/08/30 02:35:28;;;;;;;;;;;;;;;;;;1044770;28;3806;-56
2022/08/30 02:35:58;;;;;;;;;;;;;;;;;;1045367;28;4079;-54
2022/08/30 02:36:29;;;;;;;;;;;;;;;;;;1047800;28;3887;-50
2022/08/30 02:36:59;;;;;;;;;;;;;;;;;;1046108;28;4053;-51
2022/08/30 02:37:30;;;;;;;;;;;;;;;;;;1047091;28;3051;-53
2022/08/30 02:38:00;;;;;;;;;;;;;;;;;;1047484;28;4061;-53
2022/08/30 02:38:30;;;;;;;;;;;;;;;;;;1047528;28;3837;-49
2022/08/30 02:39:01;;;;;;;;;;;;;;;;;;1046866;28;4052;-52
2022/08/30 02:39:31;;;;;;;;;;;;;;;;;;1046725;28;3839;-50
2022/08/30 02:40:02;;;;;;;;;;;;;;;;;;1044385;28;4109;-51
2022/08/30 02:40:32;;;;;;;;;;;;;;;;;;1044522;28;3663;-49
2022/08/30 02:41:02;;;;;;;;;;;;;;;;;;1043953;28;3912;-55
2022/08/30 02:41:33;;;;;;;;;;;;;;;;;;1046930;28;3400;-51
2022/08/30 02:42:04;;;;;;;;;;;;;;;;;;1046951;28;4029;-52
2022/08/30 02:42:34;;;;;;;;;;;;;;;;;;1047900;28;2970;-51
2022/08/30 02:43:04;;;;;;;;;;;;;;;;;;1046703;28;4213;-51
2022/08/30 02:43:34;;;;;;;;;;;;;;;;;;1046674;28;3872;-49
2022/08/30 02:44:05;;;;;;;;;;;;;;;;;;1047330;28;3989;-53
2022/08/30 02:44:49;;;;;;;;;;;;;;;;;;1049151;28;3946;-48
2022/08/30 02:45:26;;;;;;;;;;;;;;;;;;1051340;28;3871;-49
2022/08/30 02:45:56;;;;;;;;;;;;;;;;;;1050866;28;5069;-52
2022/08/30 02:46:27;;;;;;;;;;;;;;;;;;1052272;28;3653;-49
2022/08/30 02:46:57;;;;;;;;;;;;;;;;;;1050976;28;4026;-51
2022/08/30 02:47:27;;;;;;;;;;;;;;;;;;1051255;28;3927;-50
2022/08/30 02:47:57;;;;;;;;;;;;;;;;;;1050074;28;4078;-49
2022/08/30 02:48:28;;;;;;;;;;;;;;;;;;1053101;28;3964;-50
2022/08/30 02:48:58;;;;;;;;;;;;;;;;;;1050310;28;3995;-50
2022/08/30 02:49:28;;;;;;;;;;;;;;;;;;1051377;28;3701;-55
2022/08/30 02:50:00;;;;;;;;;;;;;;;;;;1050344;28;4218;-51
2022/08/30 02:50:41;;;;;;;;;;;;;;;;;;1049788;28;3230;-55
2022/08/30 02:51:12;;;;;;;;;;;;;;;;;;1050725;28;4019;-51
2022/08/30 02:51:42;;;;;;;;;;;;;;;;;;1047913;28;3603;-52
2022/08/30 02:52:12;;;;;;;;;;;;;;;;;;1047221;28;4077;-51
2022/08/30 02:52:43;;;;;;;;;;;;;;;;;;1046748;28;3940;-48
2022/08/30 02:53:13;;;;;;;;;;;;;;;;;;1043398;28;4051;-52
2022/08/30 02:53:44;;;;;;;;;;;;;;;;;;1046444;28;3907;-52
2022/08/30 02:54:18;;;;;;;;;;;;;;;;;;1047354;28;3436;-50
2022/08/30 02:54:49;;;;;;;;;;;;;;;;;;1047222;28;4067;-51
2022/08/30 02:55:19;;;;;;;;;;;;;;;;;;1049921;28;3064;-49
2022/08/30 02:55:49;;;;;;;;;;;;;;;;;;1049924;28;3935;-53
2022/08/30 02:56:19;;;;;;;;;;;;;;;;;;1050092;28;3430;-52
2022/08/30 02:56:50;;;;;;;;;;;;;;;;;;1050432;28;4196;-50
2022/08/30 02:57:20;;;;;;;;;;;;;;;;;;1050823;28;3573;-50
2022/08/30 02:57:50;;;;;;;;;;;;;;;;;;1050713;28;3941;-51
2022/08/30 02:58:20;;;;;;;;;;;;;;;;;;1050947;28;3973;-51
2022/08/30 02:58:51;;;;;;;;;;;;;;;;;;1049510;28;3982;-49
2022/08/30 02:59:21;;;;;;;;;;;;;;;;;;1046921;28;3860;-52
2022/08/30 02:59:52;;;;;;;;;;;;;;;;;;1047635;28;3877;-51
2022/08/30 03:00:22;;;;;;;;;;;;;;;;;;1046893;28;3540;-51
2022/08/30 03:00:52;;;;;;;;;;;;;;;;;;1043316;28;4074;-53
2022/08/30 03:01:23;;;;;;;;;;;;;;;;;;1046979;28;3830;-49
2022/08/30 03:01:53;;;;;;;;;;;;;;;;;;1046644;28;4103;-53
2022/08/30 03:02:23;;;;;;;;;;;;;;;;;;1046696;28;3369;-51
2022/08/30 03:02:54;;;;;;;;;;;;;;;;;;1051386;28;4032;-51
2022/08/30 03:03:24;;;;;;;;;;;;;;;;;;1050545;28;2858;-54
2022/08/30 03:03:54;;;;;;;;;;;;;;;;;;1051329;28;3978;-51
2022/08/30 03:04:25;;;;;;;;;;;;;;;;;;1046490;28;3778;-49
2022/08/30 03:04:56;;;;;;;;;;;;;;;;;;1047409;28;3811;-53
2022/08/30 03:05:26;;;;;;;;;;;;;;;;;;1046731;28;3780;-50
2022/08/30 03:05:56;;;;;;;;;;;;;;;;;;1045869;28;3790;-53
2022/08/30 03:06:27;;;;;;;;;;;;;;;;;;1051727;28;2958;-48
2022/08/30 03:06:57;;;;;;;;;;;;;;;;;;1050249;28;3892;-52
2022/08/30 03:07:28;;;;;;;;;;;;;;;;;;1051276;28;3865;-49
2022/08/30 03:07:59;;;;;;;;;;;;;;;;;;1051588;28;4100;-48
2022/08/30 03:08:29;;;;;;;;;;;;;;;;;;1050142;28;4046;-49
2022/08/30 03:09:00;;;;;;;;;;;;;;;;;;1051383;28;4038;-53
2022/08/30 03:09:31;;;;;;;;;;;;;;;;;;1050709;28;3748;-51
2022/08/30 03:10:01;;;;;;;;;;;;;;;;;;1052238;28;3861;-53
2022/08/30 03:10:32;;;;;;;;;;;;;;;;;;1051119;28;4065;-53
2022/08/30 03:11:02;;;;;;;;;;;;;;;;;;1050798;28;3905;-51
2022/08/30 03:11:33;;;;;;;;;;;;;;;;;;1046411;28;3911;-50
2022/08/30 03:12:06;;;;;;;;;;;;;;;;;;1048308;28;4061;-50
2022/08/30 03:12:36;;;;;;;;;;;;;;;;;;1047133;28;3529;-51
2022/08/30 03:13:07;;;;;;;;;;;;;;;;;;1046611;28;4022;-52
2022/08/30 03:13:38;;;;;;;;;;;;;;;;;;1046411;28;4396;-51
2022/08/30 03:14:08;;;;;;;;;;;;;;;;;;1049178;28;4035;-49
2022/08/30 03:14:38;;;;;;;;;;;;;;;;;;1047806;28;3449;-49
2022/08/30 03:15:11;;;;;;;;;;;;;;;;;;1048479;28;4228;-49
2022/08/30 03:15:41;;;;;;;;;;;;;;;;;;1050421;28;3930;-51
2022/08/30 03:16:12;;;;;;;;;;;;;;;;;;1051068;28;3769;-50
2022/08/30 03:16:42;;;;;;;;;;;;;;;;;;1050773;28;4109;-50
2022/08/30 03:17:12;;;;;;;;;;;;;;;;;;1050987;28;4220;-49
2022/08/30 03:17:42;;;;;;;;;;;;;;;;;;1046985;28;3893;-49
2022/08/30 03:18:13;;;;;;;;;;;;;;;;;;1046427;28;3804;-52
2022/08/30 03:18:43;;;;;;;;;;;;;;;;;;1046502;28;4048;-50
2022/08/30 03:19:13;;;;;;;;;;;;;;;;;;1047460;28;4020;-50
2022/08/30 03:19:44;;;;;;;;;;;;;;;;;;1050236;28;3845;-52
2022/08/30 03:20:15;;;;;;;;;;;;;;;;;;1051185;28;3476;-52
2022/08/30 03:20:45;;;;;;;;;;;;;;;;;;1051060;28;4128;-50
2022/08/30 03:21:16;;;;;;;;;;;;;;;;;;1051209;28;3884;-51
2022/08/30 03:21:46;;;;;;;;;;;;;;;;;;1050484;28;3918;-49
2022/08/30 03:22:17;;;;;;;;;;;;;;;;;;1051294;28;3783;-51
2022/08/30 03:22:47;;;;;;;;;;;;;;;;;;1052498;28;4185;-51
2022/08/30 03:23:18;;;;;;;;;;;;;;;;;;1046888;28;3969;-51
2022/08/30 03:23:48;;;;;;;;;;;;;;;;;;1048142;28;3984;-51
2022/08/30 03:24:19;;;;;;;;;;;;;;;;;;1046341;28;3629;-50
2022/08/30 03:24:49;;;;;;;;;;;;;;;;;;1048651;28;3910;-52
2022/08/30 03:25:19;;;;;;;;;;;;;;;;;;1051488;28;3068;-53
2022/08/30 03:25:50;;;;;;;;;;;;;;;;;;1051047;28;4069;-54
2022/08/30 03:26:20;;;;;;;;;;;;;;;;;;1051064;28;3970;-49
2022/08/30 03:26:51;;;;;;;;;;;;;;;;;;1046144;28;4133;-50
2022/08/30 03:27:21;;;;;;;;;;;;;;;;;;1046444;28;3986;-50
2022/08/30 03:27:51;;;;;;;;;;;;;;;;;;1046891;28;4079;-51
2022/08/30 03:28:21;;;;;;;;;;;;;;;;;;1048982;28;4000;-50
2022/08/30 03:28:52;;;;;;;;;;;;;;;;;;1050544;28;3915;-52
2022/08/30 03:29:22;;;;;;;;;;;;;;;;;;1051448;28;3954;-47
2022/08/30 03:29:53;;;;;;;;;;;;;;;;;;1050910;28;4159;-48
2022/08/30 03:30:24;;;;;;;;;;;;;;;;;;1051045;28;3943;-50
2022/08/30 03:30:55;;;;;;;;;;;;;;;;;;1051172;28;4056;-51
2022/08/30 03:31:25;;;;;;;;;;;;;;;;;;1050274;28;3929;-50
2022/08/30 03:31:56;;;;;;;;;;;;;;;;;;1050722;28;4138;-49
2022/08/30 03:32:26;;;;;;;;;;;;;;;;;;1050977;28;3930;-49
2022/08/30 03:32:56;;;;;;;;;;;;;;;;;;1050926;28;4028;-51
2022/08/30 03:33:27;;;;;;;;;;;;;;;;;;1050602;28;3852;-52
2022/08/30 03:33:57;;;;;;;;;;;;;;;;;;1050094;28;4260;-49
2022/08/30 03:34:27;;;;;;;;;;;;;;;;;;1051167;28;3069;-50
2022/08/30 03:34:58;;;;;;;;;;;;;;;;;;1050963;28;4403;-49
2022/08/30 03:35:30;;;;;;;;;;;;;;;;;;1050395;28;4040;-50
2022/08/30 03:36:00;;;;;;;;;;;;;;;;;;1051468;28;3902;-54
2022/08/30 03:36:31;;;;;;;;;;;;;;;;;;1050545;28;4058;-53
2022/08/30 03:37:01;;;;;;;;;;;;;;;;;;1050766;28;4039;-49
2022/08/30 03:37:32;;;;;;;;;;;;;;;;;;1050448;28;3856;-50